METAR stanice u blizini

 

LYBE - Beograd / Surčin, Srbija
Ažurirano: 07/07/2022 16:00
Vedro
Vedro
 Pravac vetra S
Vetar: S 13 km/h
Temperatura: 28°C
Tačka rose: 9°C
Vlažnost: 30%
Pritisak: 1016 hPa
Pregled: Vedro
Vidljivost: greater than 10 km
2022/07/07 14:00 LYBE 071400Z 36007KT 310V030 CAVOK 28/09 Q1016 NOSIG
LYBT - Beograd / Batajnica, Srbija
Ažurirano: 07/07/2022 16:00
Vedro
Vedro
 Pravac vetra SSZ
Vetar: SSZ 11 km/h
Temperatura: 29°C
Tačka rose: 12°C
Vlažnost: 35%
Pritisak: 1016 hPa
Pregled: Vedro
Vidljivost: greater than 10 km
2022/07/07 14:00 LYBT 071400Z 34006KT 280V020 CAVOK 29/12 Q1016 NOSIG
LYVR - Vršac, Srbija
Ažurirano: 07/07/2022 16:00
Vedro
Vedro
 Pravac vetra varies
Vetar: varies 6 km/h
Temperatura: 28°C
Tačka rose: 11°C
Vlažnost: 35%
Pritisak: 1015 hPa
Pregled: Vedro
Vidljivost: greater than 10 km
2022/07/07 14:00 LYVR 071400Z AUTO VRB03KT CAVOK 28/11 Q1015
 
LYKV - Lađevci, Srbija
Ažurirano: 07/07/2022 16:00
Few Clouds
Few Clouds
 Pravac vetra SSZ
Vetar: SSZ 15 km/h
Temperatura: 29°C
Tačka rose: 7°C
Vlažnost: 25%
Pritisak: 1016 hPa
Oblaci: Few Clouds
Vidljivost: 10 km
Cloud details: Few Clouds 1524 m
2022/07/07 14:00 LYKV 071400Z 33008KT 260V020 9999 FEW050 29/07 Q1016 NOSIG
LYNI - Niš, Srbija
Ažurirano: 07/07/2022 16:00
Few Clouds
Few Clouds
 Pravac vetra SZ
Vetar: SZ 20 km/h
Temperatura: 29°C
Tačka rose: 9°C
Vlažnost: 29%
Pritisak: 1015 hPa
Oblaci: Few Clouds
Vidljivost: 10 km
Cloud details: Few Clouds 1524 m
2022/07/07 14:00 LYNI 071400Z 31011KT 260V330 9999 FEW050 29/09 Q1015 NOSIG
BKPR - Priština, Srbija
Ažurirano: 07/07/2022 16:00
Partly Cloudy
Partly Cloudy
 Pravac vetra SSI
Vetar: SSI 13 km/h
Temperatura: 27°C
Tačka rose: 9°C
Vlažnost: 32%
Pritisak: 1016 hPa
Oblaci: Partly Cloudy
Vidljivost: 10 km
Cloud details: Partly Cloudy 1524 m
2022/07/07 14:00 BKPR 071400Z 03007KT 360V070 9999 SCT050 27/09 Q1016 NOSIG
 
LHPP - Pecs / Pogany, Hungary
Ažurirano: 07/07/2022 15:45
Few Clouds
Few Clouds
 Pravac vetra varies
Vetar: varies 4 km/h
Temperatura: 26°C
Tačka rose: 10°C
Vlažnost: 37%
Pritisak: 1018 hPa
Oblaci: Few Clouds
Vidljivost: 10 km
Cloud details: Few Clouds 91 m
2022/07/07 13:45 LHPP 071345Z AUTO VRB02KT 9999 FEW003 26/10 Q1018
LHUD - Szeged, Hungary
Ažurirano: 04/07/2019 01:45
NOT Current
Vedro
Vedro
 Pravac vetra S
Vetar: S 7 km/h
Temperatura: 18°C
Tačka rose: 13°C
Vlažnost: 73%
Pritisak: 1019 hPa
Pregled: Vedro
Vidljivost: greater than 10 km
2019/07/03 23:45 LHUD 032345Z 35004KT CAVOK 18/13 Q1019
LRTR - Timisoara, Romania
Ažurirano: 07/07/2022 16:00
Partly Cloudy
Partly Cloudy
 Pravac vetra SSZ
Vetar: SSZ 20 km/h
Temperatura: 29°C
Tačka rose: 8°C
Vlažnost: 27%
Pritisak: 1015 hPa
Oblaci: Partly Cloudy
Vidljivost: 10 km
Cloud details: Few Clouds 2408 m
Partly Cloudy 2926 m
2022/07/07 14:00 LRTR 071400Z AUTO 33011KT 9999 FEW079/// SCT096/// 29/08 Q1015 NOSIG
 
LRCV - Craiova, Romania
Ažurirano: 07/07/2022 16:00
Vedro
Vedro
 Pravac vetra JZ
Vetar: JZ 11 km/h
Temperatura: 27°C
Heat Index: 27°C
Tačka rose: 15°C
Vlažnost: 48%
Pritisak: 1014 hPa
Pregled: Vedro
Vidljivost: greater than 10 km
2022/07/07 14:00 LRCV 071400Z 22006KT CAVOK 27/15 Q1014
LBSF - Sofia, Bulgaria
Ažurirano: 07/07/2022 16:00
Partly Cloudy
Partly Cloudy
 Pravac vetra ZSZ
Vetar: ZSZ 17 km/h
Temperatura: 27°C
Tačka rose: 11°C
Vlažnost: 37%
Pritisak: 1015 hPa
Oblaci: Partly Cloudy
Vidljivost: 10 km
Cloud details: Partly Cloudy 2012 m
2022/07/07 14:00 LBSF 071400Z 29009KT 260V320 9999 SCT066 27/11 Q1015 NOSIG
LWSK - Skoplje, Makedonija
Ažurirano: 07/07/2022 16:00
Few Clouds
Few Clouds
 Pravac vetra S
Vetar: S 13 km/h
Temperatura: 31°C
Tačka rose: 9°C
Vlažnost: 25%
Pritisak: 1014 hPa
Oblaci: Few Clouds
Vidljivost: 10 km
Cloud details: Few Clouds 2438 m
2022/07/07 14:00 LWSK 071400Z 36007KT 320V080 9999 FEW080 31/09 Q1014 NOSIG
 
LYPG - Podgorica, Crna Gora
Ažurirano: 07/07/2022 16:00
Few Clouds
Few Clouds
 Pravac vetra JJZ
Vetar: JJZ 9 km/h
Temperatura: 34°C
Tačka rose: 3°C
Vlažnost: 14%
Pritisak: 1012 hPa
Oblaci: Few Clouds
Vidljivost: 10 km
Cloud details: Few Clouds 1219 m
2022/07/07 14:00 LYPG 071400Z 21005KT 160V250 9999 FEW040 34/03 Q1012 NOSIG
LQSA - Sarajevo, Bosna i Hercegovina
Ažurirano: 07/07/2022 16:00
Few Clouds
Few Clouds
 Pravac vetra SSZ
Vetar: SSZ 6 km/h
Temperatura: 27°C
Tačka rose: 7°C
Vlažnost: 28%
Pritisak: 1017 hPa
Oblaci: Few Clouds
Vidljivost: 10 km
Cloud details: Few Clouds 1524 m
2022/07/07 14:00 LQSA 071400Z 34003KT 300V060 9999 FEW050 27/07 Q1017 NOSIG
LDOS - Osijek, Hrvatksa
Ažurirano: 07/07/2022 16:00
Vedro
Vedro
 Pravac vetra SI
Vetar: SI 11 km/h
Temperatura: 28°C
Tačka rose: 9°C
Vlažnost: 30%
Pritisak: 1016 hPa
Pregled: Vedro
Vidljivost: greater than 10 km
2022/07/07 14:00 LDOS 071400Z 04006KT 330V080 CAVOK 28/09 Q1016